Marshall Islands International Airport

Airport
ICAO code: 
PKMJ
IATA Code: 
MAJ
Summary
ICAO Region: 
APAC
Territory: 
Location: 
Rairok, Majuro Atoll
Serving: 
Majuro Atoll
Elevation: 
6 ft
Coordinates: 
Aerial View: 
7° 3' 54.68" N, 171° 16' 21.853" E
Metar
Observation
PKMJ 260016Z 06017KT 15SM FEW015 SCT050 BKN120 OVC300 30/25 A2982 RMK FIRST
Station
Majuro Atoll, Marshall Islands Int. Airp.
Date/Time
2022-01-26 00:16:00
Wind direction
60°
Wind speed
17 kts
Lowest cloud amount
few clouds
Temperature
30°C
Dew point
25°C
Humidity
74%
Weather condition
n/a

Marshall Islands International Airport, also known as Amata Kabua International Airport, is an airport located in the western part of Rairok on the south side of Majuro Atoll, the capital of the Republic of the Marshall Islands. The airport was built during World War II (1943) on Anenelibw and Lokojbar islets.

Climatology

Tropical monsoon climate (Köppen climate classification Am)

Runways

Designator Length Width Surface Rops
7/25 2407 46 ASP Yes/Yes
Airport map: 
Aerial View: 

SKYbrary Partners:

Safety knowledge contributed by: